sensor_id;sensor_type;location;lat;lon;timestamp;P1;durP1;ratioP1;P2;durP2;ratioP2
16460;SDS011;8341;42.048;24.650;2024-02-23T00:00:28;10.20;;;7.10;;
16460;SDS011;8341;42.048;24.650;2024-02-23T00:02:56;10.93;;;7.25;;
16460;SDS011;8341;42.048;24.650;2024-02-23T00:05:23;10.38;;;7.45;;
16460;SDS011;8341;42.048;24.650;2024-02-23T00:07:52;9.63;;;7.00;;
16460;SDS011;8341;42.048;24.650;2024-02-23T00:10:19;8.98;;;6.93;;
16460;SDS011;8341;42.048;24.650;2024-02-23T00:12:46;13.25;;;7.85;;
16460;SDS011;8341;42.048;24.650;2024-02-23T00:15:13;12.52;;;8.20;;
16460;SDS011;8341;42.048;24.650;2024-02-23T00:17:40;11.52;;;7.40;;
16460;SDS011;8341;42.048;24.650;2024-02-23T00:20:08;10.07;;;7.32;;
16460;SDS011;8341;42.048;24.650;2024-02-23T00:22:37;9.82;;;7.45;;
16460;SDS011;8341;42.048;24.650;2024-02-23T00:25:06;11.63;;;7.15;;
16460;SDS011;8341;42.048;24.650;2024-02-23T00:27:33;11.52;;;7.80;;
16460;SDS011;8341;42.048;24.650;2024-02-23T00:30:00;9.50;;;6.85;;
16460;SDS011;8341;42.048;24.650;2024-02-23T00:32:27;11.13;;;7.63;;
16460;SDS011;8341;42.048;24.650;2024-02-23T00:34:56;9.88;;;7.50;;
16460;SDS011;8341;42.048;24.650;2024-02-23T00:37:23;10.15;;;7.10;;
16460;SDS011;8341;42.048;24.650;2024-02-23T00:39:50;9.57;;;7.07;;
16460;SDS011;8341;42.048;24.650;2024-02-23T00:42:19;10.48;;;7.13;;
16460;SDS011;8341;42.048;24.650;2024-02-23T00:44:47;18.33;;;12.30;;
16460;SDS011;8341;42.048;24.650;2024-02-23T00:47:14;21.70;;;11.85;;
16460;SDS011;8341;42.048;24.650;2024-02-23T00:49:41;15.68;;;9.98;;
16460;SDS011;8341;42.048;24.650;2024-02-23T00:52:08;12.93;;;7.95;;
16460;SDS011;8341;42.048;24.650;2024-02-23T00:54:35;12.88;;;9.00;;
16460;SDS011;8341;42.048;24.650;2024-02-23T00:57:02;15.45;;;9.80;;
16460;SDS011;8341;42.048;24.650;2024-02-23T00:59:30;9.25;;;7.00;;
16460;SDS011;8341;42.048;24.650;2024-02-23T01:01:58;12.73;;;8.00;;
16460;SDS011;8341;42.048;24.650;2024-02-23T01:04:25;12.13;;;7.65;;
16460;SDS011;8341;42.048;24.650;2024-02-23T01:06:52;9.57;;;6.82;;
16460;SDS011;8341;42.048;24.650;2024-02-23T01:09:19;11.45;;;7.43;;
16460;SDS011;8341;42.048;24.650;2024-02-23T01:11:47;10.77;;;7.22;;
16460;SDS011;8341;42.048;24.650;2024-02-23T01:14:14;11.98;;;6.68;;
16460;SDS011;8341;42.048;24.650;2024-02-23T01:16:42;10.60;;;6.95;;
16460;SDS011;8341;42.048;24.650;2024-02-23T01:19:10;10.80;;;7.25;;
16460;SDS011;8341;42.048;24.650;2024-02-23T01:21:37;10.07;;;7.50;;
16460;SDS011;8341;42.048;24.650;2024-02-23T01:24:04;14.35;;;9.35;;
16460;SDS011;8341;42.048;24.650;2024-02-23T01:26:31;10.93;;;7.10;;
16460;SDS011;8341;42.048;24.650;2024-02-23T01:28:58;13.15;;;8.48;;
16460;SDS011;8341;42.048;24.650;2024-02-23T01:31:25;13.40;;;8.20;;
16460;SDS011;8341;42.048;24.650;2024-02-23T01:33:54;14.30;;;8.38;;
16460;SDS011;8341;42.048;24.650;2024-02-23T01:36:21;12.07;;;7.28;;
16460;SDS011;8341;42.048;24.650;2024-02-23T01:38:48;10.65;;;7.07;;
16460;SDS011;8341;42.048;24.650;2024-02-23T01:41:15;12.15;;;7.95;;
16460;SDS011;8341;42.048;24.650;2024-02-23T01:43:42;12.10;;;8.13;;
16460;SDS011;8341;42.048;24.650;2024-02-23T01:46:09;12.20;;;7.88;;
16460;SDS011;8341;42.048;24.650;2024-02-23T01:48:36;13.38;;;8.77;;
16460;SDS011;8341;42.048;24.650;2024-02-23T01:51:04;11.77;;;7.47;;
16460;SDS011;8341;42.048;24.650;2024-02-23T01:53:32;13.73;;;7.95;;
16460;SDS011;8341;42.048;24.650;2024-02-23T01:55:59;11.52;;;7.47;;
16460;SDS011;8341;42.048;24.650;2024-02-23T01:58:27;12.50;;;7.40;;
16460;SDS011;8341;42.048;24.650;2024-02-23T02:00:55;11.45;;;7.32;;
16460;SDS011;8341;42.048;24.650;2024-02-23T02:03:22;11.02;;;7.45;;
16460;SDS011;8341;42.048;24.650;2024-02-23T02:05:49;11.95;;;7.82;;
16460;SDS011;8341;42.048;24.650;2024-02-23T02:08:19;10.48;;;7.72;;
16460;SDS011;8341;42.048;24.650;2024-02-23T02:10:46;11.43;;;7.55;;
16460;SDS011;8341;42.048;24.650;2024-02-23T02:13:15;11.88;;;8.35;;
16460;SDS011;8341;42.048;24.650;2024-02-23T02:15:42;10.63;;;7.25;;
16460;SDS011;8341;42.048;24.650;2024-02-23T02:18:10;11.25;;;7.43;;
16460;SDS011;8341;42.048;24.650;2024-02-23T02:20:37;10.98;;;7.40;;
16460;SDS011;8341;42.048;24.650;2024-02-23T02:23:16;12.05;;;7.35;;
16460;SDS011;8341;42.048;24.650;2024-02-23T02:25:44;11.20;;;7.07;;
16460;SDS011;8341;42.048;24.650;2024-02-23T02:28:11;11.32;;;7.50;;
16460;SDS011;8341;42.048;24.650;2024-02-23T02:30:39;9.77;;;6.72;;
16460;SDS011;8341;42.048;24.650;2024-02-23T02:33:06;10.25;;;6.80;;
16460;SDS011;8341;42.048;24.650;2024-02-23T02:35:33;9.55;;;6.63;;
16460;SDS011;8341;42.048;24.650;2024-02-23T02:38:00;10.35;;;6.90;;
16460;SDS011;8341;42.048;24.650;2024-02-23T02:40:27;10.75;;;7.40;;
16460;SDS011;8341;42.048;24.650;2024-02-23T02:42:55;11.63;;;7.20;;
16460;SDS011;8341;42.048;24.650;2024-02-23T02:45:22;10.63;;;7.22;;
16460;SDS011;8341;42.048;24.650;2024-02-23T02:47:50;13.10;;;7.32;;
16460;SDS011;8341;42.048;24.650;2024-02-23T02:50:17;11.32;;;7.53;;
16460;SDS011;8341;42.048;24.650;2024-02-23T02:52:44;10.55;;;6.68;;
16460;SDS011;8341;42.048;24.650;2024-02-23T02:55:11;10.80;;;7.25;;
16460;SDS011;8341;42.048;24.650;2024-02-23T02:57:38;10.70;;;7.10;;
16460;SDS011;8341;42.048;24.650;2024-02-23T03:00:09;9.82;;;7.47;;
16460;SDS011;8341;42.048;24.650;2024-02-23T03:02:37;11.65;;;7.95;;
16460;SDS011;8341;42.048;24.650;2024-02-23T03:05:05;9.65;;;7.05;;
16460;SDS011;8341;42.048;24.650;2024-02-23T03:07:32;10.45;;;7.68;;
16460;SDS011;8341;42.048;24.650;2024-02-23T03:09:59;10.18;;;7.43;;
16460;SDS011;8341;42.048;24.650;2024-02-23T03:12:26;10.57;;;7.00;;
16460;SDS011;8341;42.048;24.650;2024-02-23T03:14:53;11.05;;;7.15;;
16460;SDS011;8341;42.048;24.650;2024-02-23T03:17:22;11.27;;;7.47;;
16460;SDS011;8341;42.048;24.650;2024-02-23T03:19:49;11.50;;;7.18;;
16460;SDS011;8341;42.048;24.650;2024-02-23T03:22:16;12.10;;;7.32;;
16460;SDS011;8341;42.048;24.650;2024-02-23T03:24:43;9.15;;;7.13;;
16460;SDS011;8341;42.048;24.650;2024-02-23T03:27:10;9.60;;;6.97;;
16460;SDS011;8341;42.048;24.650;2024-02-23T03:29:38;10.63;;;6.75;;
16460;SDS011;8341;42.048;24.650;2024-02-23T03:32:05;10.73;;;7.53;;
16460;SDS011;8341;42.048;24.650;2024-02-23T03:34:35;11.10;;;7.72;;
16460;SDS011;8341;42.048;24.650;2024-02-23T03:37:03;11.55;;;7.10;;
16460;SDS011;8341;42.048;24.650;2024-02-23T03:39:30;11.57;;;7.22;;
16460;SDS011;8341;42.048;24.650;2024-02-23T03:41:57;12.17;;;7.57;;
16460;SDS011;8341;42.048;24.650;2024-02-23T03:44:25;10.50;;;6.93;;
16460;SDS011;8341;42.048;24.650;2024-02-23T03:46:52;11.07;;;6.67;;
16460;SDS011;8341;42.048;24.650;2024-02-23T03:49:19;11.70;;;7.47;;
16460;SDS011;8341;42.048;24.650;2024-02-23T03:51:47;11.03;;;7.33;;
16460;SDS011;8341;42.048;24.650;2024-02-23T03:54:14;12.33;;;8.27;;
16460;SDS011;8341;42.048;24.650;2024-02-23T03:56:42;12.77;;;7.32;;
16460;SDS011;8341;42.048;24.650;2024-02-23T03:59:09;11.67;;;6.90;;
16460;SDS011;8341;42.048;24.650;2024-02-23T04:01:36;11.73;;;8.10;;
16460;SDS011;8341;42.048;24.650;2024-02-23T04:04:04;15.63;;;8.27;;
16460;SDS011;8341;42.048;24.650;2024-02-23T04:06:32;14.10;;;8.07;;
16460;SDS011;8341;42.048;24.650;2024-02-23T04:09:01;10.73;;;7.53;;
16460;SDS011;8341;42.048;24.650;2024-02-23T04:11:30;13.23;;;8.10;;
16460;SDS011;8341;42.048;24.650;2024-02-23T04:13:57;13.50;;;8.63;;
16460;SDS011;8341;42.048;24.650;2024-02-23T04:16:25;14.17;;;8.20;;
16460;SDS011;8341;42.048;24.650;2024-02-23T04:18:52;11.98;;;7.35;;
16460;SDS011;8341;42.048;24.650;2024-02-23T04:21:21;12.90;;;7.80;;
16460;SDS011;8341;42.048;24.650;2024-02-23T04:23:48;14.27;;;8.93;;
16460;SDS011;8341;42.048;24.650;2024-02-23T04:26:17;13.20;;;8.23;;
16460;SDS011;8341;42.048;24.650;2024-02-23T04:28:44;14.00;;;8.37;;
16460;SDS011;8341;42.048;24.650;2024-02-23T04:31:11;13.80;;;8.07;;
16460;SDS011;8341;42.048;24.650;2024-02-23T04:33:38;12.47;;;8.33;;
16460;SDS011;8341;42.048;24.650;2024-02-23T04:36:05;14.80;;;10.10;;
16460;SDS011;8341;42.048;24.650;2024-02-23T04:38:33;17.03;;;9.93;;
16460;SDS011;8341;42.048;24.650;2024-02-23T04:41:02;12.87;;;9.00;;
16460;SDS011;8341;42.048;24.650;2024-02-23T04:43:32;11.90;;;8.37;;
16460;SDS011;8341;42.048;24.650;2024-02-23T04:45:59;13.53;;;8.00;;
16460;SDS011;8341;42.048;24.650;2024-02-23T04:48:26;16.73;;;9.13;;
16460;SDS011;8341;42.048;24.650;2024-02-23T04:50:54;14.13;;;7.60;;
16460;SDS011;8341;42.048;24.650;2024-02-23T04:53:21;13.85;;;7.72;;
16460;SDS011;8341;42.048;24.650;2024-02-23T04:55:48;12.10;;;7.53;;
16460;SDS011;8341;42.048;24.650;2024-02-23T04:58:15;11.53;;;7.50;;
16460;SDS011;8341;42.048;24.650;2024-02-23T05:00:43;15.30;;;7.33;;
16460;SDS011;8341;42.048;24.650;2024-02-23T05:03:10;14.23;;;7.93;;
16460;SDS011;8341;42.048;24.650;2024-02-23T05:05:38;10.83;;;7.30;;
16460;SDS011;8341;42.048;24.650;2024-02-23T05:08:05;10.13;;;7.30;;
16460;SDS011;8341;42.048;24.650;2024-02-23T05:10:32;16.70;;;7.57;;
16460;SDS011;8341;42.048;24.650;2024-02-23T05:12:59;12.70;;;7.67;;
16460;SDS011;8341;42.048;24.650;2024-02-23T05:15:26;12.25;;;7.70;;
16460;SDS011;8341;42.048;24.650;2024-02-23T05:17:55;16.73;;;9.17;;
16460;SDS011;8341;42.048;24.650;2024-02-23T05:20:22;12.10;;;8.10;;
16460;SDS011;8341;42.048;24.650;2024-02-23T05:22:49;11.80;;;7.73;;
16460;SDS011;8341;42.048;24.650;2024-02-23T05:25:16;12.43;;;7.57;;
16460;SDS011;8341;42.048;24.650;2024-02-23T05:27:43;12.43;;;7.93;;
16460;SDS011;8341;42.048;24.650;2024-02-23T05:30:11;12.80;;;8.50;;
16460;SDS011;8341;42.048;24.650;2024-02-23T05:32:39;16.20;;;8.10;;
16460;SDS011;8341;42.048;24.650;2024-02-23T05:35:07;12.73;;;7.80;;
16460;SDS011;8341;42.048;24.650;2024-02-23T05:37:34;11.30;;;7.23;;
16460;SDS011;8341;42.048;24.650;2024-02-23T05:40:02;12.63;;;8.27;;
16460;SDS011;8341;42.048;24.650;2024-02-23T05:42:32;15.87;;;9.33;;
16460;SDS011;8341;42.048;24.650;2024-02-23T05:44:59;13.73;;;9.27;;
16460;SDS011;8341;42.048;24.650;2024-02-23T05:47:26;13.60;;;9.57;;
16460;SDS011;8341;42.048;24.650;2024-02-23T05:49:53;12.70;;;9.10;;
16460;SDS011;8341;42.048;24.650;2024-02-23T05:52:21;11.27;;;7.50;;
16460;SDS011;8341;42.048;24.650;2024-02-23T05:54:48;11.93;;;8.37;;
16460;SDS011;8341;42.048;24.650;2024-02-23T05:57:17;10.70;;;7.60;;
16460;SDS011;8341;42.048;24.650;2024-02-23T05:59:43;11.97;;;7.50;;
16460;SDS011;8341;42.048;24.650;2024-02-23T06:02:10;13.73;;;8.10;;
16460;SDS011;8341;42.048;24.650;2024-02-23T06:04:37;15.13;;;8.47;;
16460;SDS011;8341;42.048;24.650;2024-02-23T06:07:07;12.17;;;8.00;;
16460;SDS011;8341;42.048;24.650;2024-02-23T06:09:35;12.00;;;8.27;;
16460;SDS011;8341;42.048;24.650;2024-02-23T06:12:02;10.97;;;7.60;;
16460;SDS011;8341;42.048;24.650;2024-02-23T06:14:29;11.93;;;7.87;;
16460;SDS011;8341;42.048;24.650;2024-02-23T06:16:56;12.50;;;8.37;;
16460;SDS011;8341;42.048;24.650;2024-02-23T06:19:23;12.57;;;8.40;;
16460;SDS011;8341;42.048;24.650;2024-02-23T06:21:50;12.07;;;7.83;;
16460;SDS011;8341;42.048;24.650;2024-02-23T06:24:17;12.63;;;8.63;;
16460;SDS011;8341;42.048;24.650;2024-02-23T06:26:46;12.90;;;8.30;;
16460;SDS011;8341;42.048;24.650;2024-02-23T06:29:14;14.75;;;8.68;;
16460;SDS011;8341;42.048;24.650;2024-02-23T06:31:41;12.88;;;7.93;;
16460;SDS011;8341;42.048;24.650;2024-02-23T06:34:14;13.80;;;9.15;;
16460;SDS011;8341;42.048;24.650;2024-02-23T06:36:40;13.05;;;9.95;;
16460;SDS011;8341;42.048;24.650;2024-02-23T06:39:07;14.60;;;9.70;;
16460;SDS011;8341;42.048;24.650;2024-02-23T06:41:36;14.83;;;9.77;;
16460;SDS011;8341;42.048;24.650;2024-02-23T06:44:05;14.18;;;9.27;;
16460;SDS011;8341;42.048;24.650;2024-02-23T06:46:32;13.50;;;8.88;;
16460;SDS011;8341;42.048;24.650;2024-02-23T06:48:59;15.40;;;9.48;;
16460;SDS011;8341;42.048;24.650;2024-02-23T06:51:26;14.65;;;9.35;;
16460;SDS011;8341;42.048;24.650;2024-02-23T06:53:53;18.00;;;12.05;;
16460;SDS011;8341;42.048;24.650;2024-02-23T06:56:21;17.27;;;11.05;;
16460;SDS011;8341;42.048;24.650;2024-02-23T06:58:48;18.55;;;11.15;;
16460;SDS011;8341;42.048;24.650;2024-02-23T07:01:17;16.73;;;11.77;;
16460;SDS011;8341;42.048;24.650;2024-02-23T07:03:46;19.33;;;11.68;;
16460;SDS011;8341;42.048;24.650;2024-02-23T07:06:16;19.40;;;13.23;;
16460;SDS011;8341;42.048;24.650;2024-02-23T07:08:43;18.33;;;12.38;;
16460;SDS011;8341;42.048;24.650;2024-02-23T07:11:10;18.65;;;13.63;;
16460;SDS011;8341;42.048;24.650;2024-02-23T07:13:37;22.17;;;14.07;;
16460;SDS011;8341;42.048;24.650;2024-02-23T07:16:06;21.85;;;13.82;;
16460;SDS011;8341;42.048;24.650;2024-02-23T07:18:34;18.08;;;12.48;;
16460;SDS011;8341;42.048;24.650;2024-02-23T07:21:01;20.50;;;14.25;;
16460;SDS011;8341;42.048;24.650;2024-02-23T07:23:28;21.60;;;14.73;;
16460;SDS011;8341;42.048;24.650;2024-02-23T07:25:55;19.40;;;13.95;;
16460;SDS011;8341;42.048;24.650;2024-02-23T07:28:21;19.75;;;13.48;;
16460;SDS011;8341;42.048;24.650;2024-02-23T07:30:48;21.05;;;14.95;;
16460;SDS011;8341;42.048;24.650;2024-02-23T07:33:16;19.42;;;13.68;;
16460;SDS011;8341;42.048;24.650;2024-02-23T07:35:45;16.40;;;12.20;;
16460;SDS011;8341;42.048;24.650;2024-02-23T07:38:12;17.02;;;11.20;;
16460;SDS011;8341;42.048;24.650;2024-02-23T07:40:39;17.63;;;12.63;;
16460;SDS011;8341;42.048;24.650;2024-02-23T07:43:06;18.20;;;13.15;;
16460;SDS011;8341;42.048;24.650;2024-02-23T07:45:33;17.65;;;11.65;;
16460;SDS011;8341;42.048;24.650;2024-02-23T07:48:00;14.80;;;11.23;;
16460;SDS011;8341;42.048;24.650;2024-02-23T07:50:27;18.58;;;12.35;;
16460;SDS011;8341;42.048;24.650;2024-02-23T07:52:55;17.35;;;12.57;;
16460;SDS011;8341;42.048;24.650;2024-02-23T07:55:22;17.65;;;12.48;;
16460;SDS011;8341;42.048;24.650;2024-02-23T07:57:49;16.75;;;13.00;;
16460;SDS011;8341;42.048;24.650;2024-02-23T08:00:17;16.08;;;11.80;;
16460;SDS011;8341;42.048;24.650;2024-02-23T08:02:45;20.25;;;13.75;;
16460;SDS011;8341;42.048;24.650;2024-02-23T08:05:12;24.42;;;14.80;;
16460;SDS011;8341;42.048;24.650;2024-02-23T08:07:38;22.48;;;16.23;;
16460;SDS011;8341;42.048;24.650;2024-02-23T08:10:07;23.30;;;16.52;;
16460;SDS011;8341;42.048;24.650;2024-02-23T08:12:36;23.23;;;15.93;;
16460;SDS011;8341;42.048;24.650;2024-02-23T08:15:04;23.70;;;16.33;;
16460;SDS011;8341;42.048;24.650;2024-02-23T08:17:31;23.35;;;16.50;;
16460;SDS011;8341;42.048;24.650;2024-02-23T08:19:58;23.17;;;16.88;;
16460;SDS011;8341;42.048;24.650;2024-02-23T08:22:25;22.48;;;16.00;;
16460;SDS011;8341;42.048;24.650;2024-02-23T08:24:53;23.25;;;16.55;;
16460;SDS011;8341;42.048;24.650;2024-02-23T08:27:21;21.08;;;15.20;;
16460;SDS011;8341;42.048;24.650;2024-02-23T08:29:48;27.35;;;14.82;;
16460;SDS011;8341;42.048;24.650;2024-02-23T08:32:15;20.83;;;15.43;;
16460;SDS011;8341;42.048;24.650;2024-02-23T08:34:42;19.90;;;13.93;;
16460;SDS011;8341;42.048;24.650;2024-02-23T08:37:09;19.58;;;13.88;;
16460;SDS011;8341;42.048;24.650;2024-02-23T08:39:37;19.98;;;13.85;;
16460;SDS011;8341;42.048;24.650;2024-02-23T08:42:04;18.88;;;14.05;;
16460;SDS011;8341;42.048;24.650;2024-02-23T08:44:32;16.88;;;12.85;;
16460;SDS011;8341;42.048;24.650;2024-02-23T08:47:00;18.30;;;13.38;;
16460;SDS011;8341;42.048;24.650;2024-02-23T08:49:28;18.67;;;13.13;;
16460;SDS011;8341;42.048;24.650;2024-02-23T08:51:54;18.48;;;13.88;;
16460;SDS011;8341;42.048;24.650;2024-02-23T08:54:23;19.20;;;13.95;;
16460;SDS011;8341;42.048;24.650;2024-02-23T08:56:50;17.48;;;13.48;;
16460;SDS011;8341;42.048;24.650;2024-02-23T08:59:17;16.77;;;13.05;;
16460;SDS011;8341;42.048;24.650;2024-02-23T09:01:45;17.60;;;13.55;;
16460;SDS011;8341;42.048;24.650;2024-02-23T09:04:12;19.85;;;13.90;;
16460;SDS011;8341;42.048;24.650;2024-02-23T09:06:39;18.85;;;13.85;;
16460;SDS011;8341;42.048;24.650;2024-02-23T09:09:07;20.42;;;14.00;;
16460;SDS011;8341;42.048;24.650;2024-02-23T09:11:34;16.88;;;13.15;;
16460;SDS011;8341;42.048;24.650;2024-02-23T09:14:02;18.45;;;12.80;;
16460;SDS011;8341;42.048;24.650;2024-02-23T09:16:29;15.07;;;11.35;;
16460;SDS011;8341;42.048;24.650;2024-02-23T09:18:58;18.30;;;13.65;;
16460;SDS011;8341;42.048;24.650;2024-02-23T09:21:24;20.35;;;14.25;;
16460;SDS011;8341;42.048;24.650;2024-02-23T09:23:51;17.45;;;13.60;;
16460;SDS011;8341;42.048;24.650;2024-02-23T09:26:18;20.27;;;14.18;;
16460;SDS011;8341;42.048;24.650;2024-02-23T09:28:45;17.80;;;14.20;;
16460;SDS011;8341;42.048;24.650;2024-02-23T09:31:12;17.38;;;13.75;;
16460;SDS011;8341;42.048;24.650;2024-02-23T09:33:39;18.85;;;13.85;;
16460;SDS011;8341;42.048;24.650;2024-02-23T09:36:07;18.38;;;13.02;;
16460;SDS011;8341;42.048;24.650;2024-02-23T09:38:35;23.48;;;16.08;;
16460;SDS011;8341;42.048;24.650;2024-02-23T09:41:01;20.55;;;14.45;;
16460;SDS011;8341;42.048;24.650;2024-02-23T09:43:29;24.33;;;15.75;;
16460;SDS011;8341;42.048;24.650;2024-02-23T09:45:57;19.70;;;14.65;;
16460;SDS011;8341;42.048;24.650;2024-02-23T09:48:24;21.13;;;15.57;;
16460;SDS011;8341;42.048;24.650;2024-02-23T09:50:51;22.40;;;14.93;;
16460;SDS011;8341;42.048;24.650;2024-02-23T09:53:20;20.50;;;15.07;;
16460;SDS011;8341;42.048;24.650;2024-02-23T09:55:50;21.15;;;14.70;;
16460;SDS011;8341;42.048;24.650;2024-02-23T09:58:19;21.55;;;14.88;;
16460;SDS011;8341;42.048;24.650;2024-02-23T10:00:47;19.40;;;14.05;;
16460;SDS011;8341;42.048;24.650;2024-02-23T10:03:13;20.25;;;14.65;;
16460;SDS011;8341;42.048;24.650;2024-02-23T10:05:40;22.90;;;15.85;;
16460;SDS011;8341;42.048;24.650;2024-02-23T10:08:09;18.88;;;15.00;;
16460;SDS011;8341;42.048;24.650;2024-02-23T10:10:38;18.50;;;13.95;;
16460;SDS011;8341;42.048;24.650;2024-02-23T10:13:06;17.63;;;13.50;;
16460;SDS011;8341;42.048;24.650;2024-02-23T10:15:33;16.92;;;12.93;;
16460;SDS011;8341;42.048;24.650;2024-02-23T10:18:00;20.00;;;12.73;;
16460;SDS011;8341;42.048;24.650;2024-02-23T10:20:27;16.23;;;12.90;;
16460;SDS011;8341;42.048;24.650;2024-02-23T10:22:54;15.32;;;12.65;;
16460;SDS011;8341;42.048;24.650;2024-02-23T10:25:21;17.73;;;12.30;;
16460;SDS011;8341;42.048;24.650;2024-02-23T10:27:50;22.35;;;12.50;;
16460;SDS011;8341;42.048;24.650;2024-02-23T10:30:17;16.55;;;12.98;;
16460;SDS011;8341;42.048;24.650;2024-02-23T10:32:43;16.85;;;12.75;;
16460;SDS011;8341;42.048;24.650;2024-02-23T10:35:13;14.88;;;12.25;;
16460;SDS011;8341;42.048;24.650;2024-02-23T10:37:42;15.88;;;11.55;;
16460;SDS011;8341;42.048;24.650;2024-02-23T10:40:11;14.90;;;11.25;;
16460;SDS011;8341;42.048;24.650;2024-02-23T10:42:38;13.30;;;10.93;;
16460;SDS011;8341;42.048;24.650;2024-02-23T10:45:09;15.70;;;11.02;;
16460;SDS011;8341;42.048;24.650;2024-02-23T10:47:36;13.25;;;10.52;;
16460;SDS011;8341;42.048;24.650;2024-02-23T10:50:04;16.00;;;10.65;;
16460;SDS011;8341;42.048;24.650;2024-02-23T10:52:32;14.32;;;9.70;;
16460;SDS011;8341;42.048;24.650;2024-02-23T10:55:00;12.68;;;9.77;;
16460;SDS011;8341;42.048;24.650;2024-02-23T10:57:29;12.95;;;9.60;;
16460;SDS011;8341;42.048;24.650;2024-02-23T10:59:57;16.05;;;9.02;;
16460;SDS011;8341;42.048;24.650;2024-02-23T11:02:27;14.48;;;9.13;;
16460;SDS011;8341;42.048;24.650;2024-02-23T11:04:57;13.80;;;9.73;;
16460;SDS011;8341;42.048;24.650;2024-02-23T11:07:25;14.45;;;9.50;;
16460;SDS011;8341;42.048;24.650;2024-02-23T11:09:53;11.88;;;9.90;;
16460;SDS011;8341;42.048;24.650;2024-02-23T11:12:23;12.90;;;8.95;;
16460;SDS011;8341;42.048;24.650;2024-02-23T11:14:51;16.10;;;10.10;;
16460;SDS011;8341;42.048;24.650;2024-02-23T11:17:21;17.15;;;10.32;;
16460;SDS011;8341;42.048;24.650;2024-02-23T11:19:50;11.68;;;8.95;;
16460;SDS011;8341;42.048;24.650;2024-02-23T11:22:23;10.80;;;8.90;;
16460;SDS011;8341;42.048;24.650;2024-02-23T11:24:51;12.45;;;8.63;;
16460;SDS011;8341;42.048;24.650;2024-02-23T11:27:18;12.65;;;8.52;;
16460;SDS011;8341;42.048;24.650;2024-02-23T11:29:45;11.15;;;8.45;;
16460;SDS011;8341;42.048;24.650;2024-02-23T11:32:14;11.00;;;8.48;;
16460;SDS011;8341;42.048;24.650;2024-02-23T11:34:53;10.98;;;9.15;;
16460;SDS011;8341;42.048;24.650;2024-02-23T11:37:22;11.70;;;8.80;;
16460;SDS011;8341;42.048;24.650;2024-02-23T11:39:49;13.50;;;9.55;;
16460;SDS011;8341;42.048;24.650;2024-02-23T11:42:17;11.98;;;9.63;;
16460;SDS011;8341;42.048;24.650;2024-02-23T11:44:44;12.35;;;9.02;;
16460;SDS011;8341;42.048;24.650;2024-02-23T11:47:11;12.88;;;9.63;;
16460;SDS011;8341;42.048;24.650;2024-02-23T11:49:38;12.52;;;9.52;;
16460;SDS011;8341;42.048;24.650;2024-02-23T11:52:07;11.48;;;9.00;;
16460;SDS011;8341;42.048;24.650;2024-02-23T11:54:34;12.60;;;9.07;;
16460;SDS011;8341;42.048;24.650;2024-02-23T11:57:01;11.80;;;9.55;;
16460;SDS011;8341;42.048;24.650;2024-02-23T11:59:28;10.68;;;8.30;;
16460;SDS011;8341;42.048;24.650;2024-02-23T12:01:55;12.07;;;8.77;;
16460;SDS011;8341;42.048;24.650;2024-02-23T12:04:22;11.60;;;8.95;;
16460;SDS011;8341;42.048;24.650;2024-02-23T12:06:48;16.30;;;9.80;;
16460;SDS011;8341;42.048;24.650;2024-02-23T12:09:17;11.80;;;8.75;;
16460;SDS011;8341;42.048;24.650;2024-02-23T12:11:44;10.15;;;8.35;;
16460;SDS011;8341;42.048;24.650;2024-02-23T12:14:11;12.77;;;9.50;;
16460;SDS011;8341;42.048;24.650;2024-02-23T12:16:39;9.52;;;8.48;;
16460;SDS011;8341;42.048;24.650;2024-02-23T12:19:07;15.13;;;9.60;;
16460;SDS011;8341;42.048;24.650;2024-02-23T12:21:34;15.30;;;10.68;;
16460;SDS011;8341;42.048;24.650;2024-02-23T12:24:04;13.38;;;9.52;;
16460;SDS011;8341;42.048;24.650;2024-02-23T12:26:34;11.70;;;9.55;;
16460;SDS011;8341;42.048;24.650;2024-02-23T12:29:01;10.98;;;9.00;;
16460;SDS011;8341;42.048;24.650;2024-02-23T12:31:30;13.18;;;9.80;;
16460;SDS011;8341;42.048;24.650;2024-02-23T12:33:58;12.10;;;8.90;;
16460;SDS011;8341;42.048;24.650;2024-02-23T12:36:25;13.20;;;9.57;;
16460;SDS011;8341;42.048;24.650;2024-02-23T12:38:52;13.05;;;9.57;;
16460;SDS011;8341;42.048;24.650;2024-02-23T12:41:19;14.68;;;10.35;;
16460;SDS011;8341;42.048;24.650;2024-02-23T12:43:47;11.35;;;9.43;;
16460;SDS011;8341;42.048;24.650;2024-02-23T12:46:14;12.82;;;9.85;;
16460;SDS011;8341;42.048;24.650;2024-02-23T12:48:41;12.20;;;9.70;;
16460;SDS011;8341;42.048;24.650;2024-02-23T12:51:09;11.30;;;10.00;;
16460;SDS011;8341;42.048;24.650;2024-02-23T12:53:38;11.80;;;9.68;;
16460;SDS011;8341;42.048;24.650;2024-02-23T12:56:06;11.18;;;9.25;;
16460;SDS011;8341;42.048;24.650;2024-02-23T12:58:35;11.95;;;10.07;;
16460;SDS011;8341;42.048;24.650;2024-02-23T13:01:03;10.73;;;8.90;;
16460;SDS011;8341;42.048;24.650;2024-02-23T13:03:32;13.20;;;10.32;;
16460;SDS011;8341;42.048;24.650;2024-02-23T13:06:00;11.80;;;9.70;;
16460;SDS011;8341;42.048;24.650;2024-02-23T13:08:27;12.75;;;9.70;;
16460;SDS011;8341;42.048;24.650;2024-02-23T13:10:55;14.07;;;10.10;;
16460;SDS011;8341;42.048;24.650;2024-02-23T13:13:23;11.85;;;9.30;;
16460;SDS011;8341;42.048;24.650;2024-02-23T13:15:51;12.65;;;10.60;;
16460;SDS011;8341;42.048;24.650;2024-02-23T13:18:20;13.80;;;10.63;;
16460;SDS011;8341;42.048;24.650;2024-02-23T13:20:47;13.63;;;10.32;;
16460;SDS011;8341;42.048;24.650;2024-02-23T13:23:14;13.07;;;10.23;;
16460;SDS011;8341;42.048;24.650;2024-02-23T13:25:41;12.82;;;9.80;;
16460;SDS011;8341;42.048;24.650;2024-02-23T13:28:08;14.40;;;11.68;;
16460;SDS011;8341;42.048;24.650;2024-02-23T13:30:36;15.00;;;10.73;;
16460;SDS011;8341;42.048;24.650;2024-02-23T13:33:04;12.55;;;10.90;;
16460;SDS011;8341;42.048;24.650;2024-02-23T13:35:34;13.70;;;10.85;;
16460;SDS011;8341;42.048;24.650;2024-02-23T13:38:01;12.68;;;10.05;;
16460;SDS011;8341;42.048;24.650;2024-02-23T13:40:29;13.52;;;9.63;;
16460;SDS011;8341;42.048;24.650;2024-02-23T13:42:57;11.88;;;8.52;;
16460;SDS011;8341;42.048;24.650;2024-02-23T13:45:24;13.15;;;8.38;;
16460;SDS011;8341;42.048;24.650;2024-02-23T13:47:57;10.95;;;7.88;;
16460;SDS011;8341;42.048;24.650;2024-02-23T13:50:25;14.05;;;8.10;;
16460;SDS011;8341;42.048;24.650;2024-02-23T13:52:54;11.15;;;8.25;;
16460;SDS011;8341;42.048;24.650;2024-02-23T13:55:21;9.65;;;7.60;;
16460;SDS011;8341;42.048;24.650;2024-02-23T13:57:48;10.00;;;7.85;;
16460;SDS011;8341;42.048;24.650;2024-02-23T14:00:15;11.35;;;8.15;;
16460;SDS011;8341;42.048;24.650;2024-02-23T14:02:43;8.40;;;7.53;;
16460;SDS011;8341;42.048;24.650;2024-02-23T14:05:11;9.60;;;8.07;;
16460;SDS011;8341;42.048;24.650;2024-02-23T14:07:40;12.82;;;8.63;;
16460;SDS011;8341;42.048;24.650;2024-02-23T14:10:09;9.65;;;7.85;;
16460;SDS011;8341;42.048;24.650;2024-02-23T14:12:36;10.60;;;8.10;;
16460;SDS011;8341;42.048;24.650;2024-02-23T14:15:03;12.68;;;9.45;;
16460;SDS011;8341;42.048;24.650;2024-02-23T14:17:31;10.77;;;8.18;;
16460;SDS011;8341;42.048;24.650;2024-02-23T14:19:59;14.50;;;9.25;;
16460;SDS011;8341;42.048;24.650;2024-02-23T14:22:26;13.43;;;8.93;;
16460;SDS011;8341;42.048;24.650;2024-02-23T14:24:53;13.32;;;9.35;;
16460;SDS011;8341;42.048;24.650;2024-02-23T14:27:22;11.95;;;8.73;;
16460;SDS011;8341;42.048;24.650;2024-02-23T14:29:49;9.00;;;7.55;;
16460;SDS011;8341;42.048;24.650;2024-02-23T14:32:16;12.00;;;8.43;;